sensor_id;sensor_type;location;lat;lon;timestamp;pressure;altitude;pressure_sealevel;temperature;humidity
55171;BME280;41060;47.510;8.680;2023-02-10T00:01:19;98927.03;;;1.42;46.06
55171;BME280;41060;47.510;8.680;2023-02-10T00:03:46;98923.50;;;1.44;45.59
55171;BME280;41060;47.510;8.680;2023-02-10T00:06:15;98920.66;;;1.61;45.73
55171;BME280;41060;47.510;8.680;2023-02-10T00:08:46;98918.81;;;1.66;45.50
55171;BME280;41060;47.510;8.680;2023-02-10T00:11:13;98923.22;;;1.64;46.03
55171;BME280;41060;47.510;8.680;2023-02-10T00:13:41;98919.78;;;1.60;45.96
55171;BME280;41060;47.510;8.680;2023-02-10T00:16:10;98894.88;;;1.39;45.36
55171;BME280;41060;47.510;8.680;2023-02-10T00:18:38;98934.44;;;1.72;45.44
55171;BME280;41060;47.510;8.680;2023-02-10T00:21:06;98908.69;;;1.46;45.52
55171;BME280;41060;47.510;8.680;2023-02-10T00:23:34;98844.94;;;1.06;45.93
55171;BME280;41060;47.510;8.680;2023-02-10T00:26:03;98806.16;;;0.80;45.45
55171;BME280;41060;47.510;8.680;2023-02-10T00:28:30;98911.28;;;1.48;45.50
55171;BME280;41060;47.510;8.680;2023-02-10T00:30:56;98940.22;;;1.31;45.96
55171;BME280;41060;47.510;8.680;2023-02-10T00:33:29;98924.72;;;1.20;46.28
55171;BME280;41060;47.510;8.680;2023-02-10T00:35:56;98936.94;;;1.17;45.82
55171;BME280;41060;47.510;8.680;2023-02-10T00:38:22;98950.94;;;1.13;46.43
55171;BME280;41060;47.510;8.680;2023-02-10T00:40:51;98950.88;;;1.14;46.43
55171;BME280;41060;47.510;8.680;2023-02-10T00:43:17;98880.81;;;0.85;45.62
55171;BME280;41060;47.510;8.680;2023-02-10T00:45:44;98958.56;;;1.26;46.15
55171;BME280;41060;47.510;8.680;2023-02-10T00:48:11;98933.75;;;0.96;46.60
55171;BME280;41060;47.510;8.680;2023-02-10T00:50:40;98964.78;;;1.15;46.03
55171;BME280;41060;47.510;8.680;2023-02-10T00:53:07;98960.34;;;1.23;46.37
55171;BME280;41060;47.510;8.680;2023-02-10T00:55:34;98936.97;;;1.15;46.25
55171;BME280;41060;47.510;8.680;2023-02-10T00:58:04;98785.38;;;0.03;46.30
55171;BME280;41060;47.510;8.680;2023-02-10T01:00:31;98955.44;;;0.98;46.30
55171;BME280;41060;47.510;8.680;2023-02-10T01:02:58;98889.84;;;0.60;46.66
55171;BME280;41060;47.510;8.680;2023-02-10T01:05:25;98976.00;;;1.24;46.30
55171;BME280;41060;47.510;8.680;2023-02-10T01:07:51;98923.31;;;0.93;45.86
55171;BME280;41060;47.510;8.680;2023-02-10T01:10:19;98782.22;;;-0.28;46.53
55171;BME280;41060;47.510;8.680;2023-02-10T01:12:46;98975.59;;;0.86;46.72
55171;BME280;41060;47.510;8.680;2023-02-10T01:15:14;99000.72;;;0.93;46.73
55171;BME280;41060;47.510;8.680;2023-02-10T01:17:41;98971.84;;;1.08;46.15
55171;BME280;41060;47.510;8.680;2023-02-10T01:20:08;98976.06;;;1.18;45.65
55171;BME280;41060;47.510;8.680;2023-02-10T01:22:35;98778.41;;;0.08;46.25
55171;BME280;41060;47.510;8.680;2023-02-10T01:25:03;98981.31;;;1.15;45.79
55171;BME280;41060;47.510;8.680;2023-02-10T01:27:29;98958.03;;;1.00;45.68
55171;BME280;41060;47.510;8.680;2023-02-10T01:29:56;98983.06;;;1.15;45.52
55171;BME280;41060;47.510;8.680;2023-02-10T01:32:25;98987.31;;;1.23;45.85
55171;BME280;41060;47.510;8.680;2023-02-10T01:34:51;98859.56;;;0.48;45.54
55171;BME280;41060;47.510;8.680;2023-02-10T01:37:18;98990.69;;;1.31;45.77
55171;BME280;41060;47.510;8.680;2023-02-10T01:39:45;98991.56;;;1.29;45.88
55171;BME280;41060;47.510;8.680;2023-02-10T01:42:12;98986.41;;;1.27;46.78
55171;BME280;41060;47.510;8.680;2023-02-10T01:47:50;98983.63;;;1.39;46.01
55171;BME280;41060;47.510;8.680;2023-02-10T01:50:19;98986.22;;;1.39;46.18
55171;BME280;41060;47.510;8.680;2023-02-10T01:52:47;98858.56;;;0.60;46.95
55171;BME280;41060;47.510;8.680;2023-02-10T01:55:17;98996.13;;;1.13;47.38
55171;BME280;41060;47.510;8.680;2023-02-10T01:57:45;98988.28;;;1.15;47.26
55171;BME280;41060;47.510;8.680;2023-02-10T02:00:14;98986.50;;;1.18;46.74
55171;BME280;41060;47.510;8.680;2023-02-10T02:02:43;98884.25;;;0.12;47.31
55171;BME280;41060;47.510;8.680;2023-02-10T02:05:21;99003.69;;;0.58;47.83
55171;BME280;41060;47.510;8.680;2023-02-10T02:07:50;98952.00;;;0.12;48.06
55171;BME280;41060;47.510;8.680;2023-02-10T02:10:17;99018.69;;;0.33;48.26
55171;BME280;41060;47.510;8.680;2023-02-10T02:12:50;98996.88;;;0.45;48.20
55171;BME280;41060;47.510;8.680;2023-02-10T02:15:27;99004.50;;;0.65;47.68
55171;BME280;41060;47.510;8.680;2023-02-10T02:18:01;99000.94;;;0.73;47.83
55171;BME280;41060;47.510;8.680;2023-02-10T02:20:56;98739.19;;;-0.59;46.80
55171;BME280;41060;47.510;8.680;2023-02-10T02:23:42;98985.06;;;0.93;46.48
55171;BME280;41060;47.510;8.680;2023-02-10T02:26:45;98983.28;;;0.98;46.34
55171;BME280;41060;47.510;8.680;2023-02-10T02:29:32;98770.34;;;-0.55;46.81
55171;BME280;41060;47.510;8.680;2023-02-10T02:32:04;98992.41;;;0.56;47.14
55171;BME280;41060;47.510;8.680;2023-02-10T02:34:37;98989.22;;;0.27;47.97
55171;BME280;41060;47.510;8.680;2023-02-10T02:37:08;98958.19;;;-0.02;48.09
55171;BME280;41060;47.510;8.680;2023-02-10T02:39:37;98975.28;;;0.31;47.62
55171;BME280;41060;47.510;8.680;2023-02-10T02:42:16;98926.88;;;0.05;47.36
55171;BME280;41060;47.510;8.680;2023-02-10T02:44:46;98978.66;;;0.42;47.33
55171;BME280;41060;47.510;8.680;2023-02-10T02:47:19;98935.50;;;0.10;47.33
55171;BME280;41060;47.510;8.680;2023-02-10T02:49:57;98959.94;;;-0.03;47.79
55171;BME280;41060;47.510;8.680;2023-02-10T02:52:31;98974.75;;;-0.12;48.69
55171;BME280;41060;47.510;8.680;2023-02-10T02:55:07;98977.47;;;-0.26;48.96
55171;BME280;41060;47.510;8.680;2023-02-10T02:57:43;98960.22;;;-0.42;49.04
55171;BME280;41060;47.510;8.680;2023-02-10T03:00:16;98964.50;;;-0.34;48.64
55171;BME280;41060;47.510;8.680;2023-02-10T03:02:46;98966.34;;;-0.49;48.37
55171;BME280;41060;47.510;8.680;2023-02-10T03:05:17;98994.88;;;-0.30;49.16
55171;BME280;41060;47.510;8.680;2023-02-10T03:07:43;98990.41;;;-0.14;48.62
55171;BME280;41060;47.510;8.680;2023-02-10T03:10:10;99001.59;;;-0.01;48.62
55171;BME280;41060;47.510;8.680;2023-02-10T03:12:37;98930.66;;;-0.34;48.44
55171;BME280;41060;47.510;8.680;2023-02-10T03:15:04;98990.25;;;0.07;48.35
55171;BME280;41060;47.510;8.680;2023-02-10T03:17:30;98987.66;;;0.04;48.24
55171;BME280;41060;47.510;8.680;2023-02-10T03:20:01;98961.78;;;-0.17;48.16
55171;BME280;41060;47.510;8.680;2023-02-10T03:22:28;98979.91;;;-0.03;48.24
55171;BME280;41060;47.510;8.680;2023-02-10T03:24:54;98989.47;;;-0.04;48.53
55171;BME280;41060;47.510;8.680;2023-02-10T03:27:22;98992.88;;;0.04;48.33
55171;BME280;41060;47.510;8.680;2023-02-10T03:29:48;98990.19;;;0.15;48.12
55171;BME280;41060;47.510;8.680;2023-02-10T03:32:15;98940.84;;;-0.05;47.76
55171;BME280;41060;47.510;8.680;2023-02-10T03:34:42;98993.53;;;0.31;47.76
55171;BME280;41060;47.510;8.680;2023-02-10T03:37:11;98996.16;;;0.28;47.85
55171;BME280;41060;47.510;8.680;2023-02-10T03:39:38;98933.00;;;0.01;47.52
55171;BME280;41060;47.510;8.680;2023-02-10T03:42:05;98994.34;;;0.34;47.48
55171;BME280;41060;47.510;8.680;2023-02-10T03:44:32;99005.84;;;0.12;47.77
55171;BME280;41060;47.510;8.680;2023-02-10T03:46:58;98911.72;;;-0.56;47.71
55171;BME280;41060;47.510;8.680;2023-02-10T03:49:28;99008.69;;;-0.22;48.48
55171;BME280;41060;47.510;8.680;2023-02-10T03:51:54;98969.84;;;-0.55;48.65
55171;BME280;41060;47.510;8.680;2023-02-10T03:54:22;99008.88;;;-0.57;48.60
55171;BME280;41060;47.510;8.680;2023-02-10T03:56:49;99014.03;;;-0.47;48.54
55171;BME280;41060;47.510;8.680;2023-02-10T03:59:16;98977.69;;;-0.63;48.23
55171;BME280;41060;47.510;8.680;2023-02-10T04:01:43;98993.28;;;-0.57;48.45
55171;BME280;41060;47.510;8.680;2023-02-10T04:04:10;98981.28;;;-0.83;48.60
55171;BME280;41060;47.510;8.680;2023-02-10T04:06:36;99027.16;;;-0.72;49.01
55171;BME280;41060;47.510;8.680;2023-02-10T04:09:03;99039.28;;;-0.62;48.77
55171;BME280;41060;47.510;8.680;2023-02-10T04:11:31;99031.44;;;-0.54;48.83
55171;BME280;41060;47.510;8.680;2023-02-10T04:13:58;99037.53;;;-0.61;49.10
55171;BME280;41060;47.510;8.680;2023-02-10T04:16:27;99006.31;;;-0.64;48.84
55171;BME280;41060;47.510;8.680;2023-02-10T04:18:55;99033.13;;;-0.50;48.42
55171;BME280;41060;47.510;8.680;2023-02-10T04:21:22;98906.09;;;-1.38;48.29
55171;BME280;41060;47.510;8.680;2023-02-10T04:23:49;99000.31;;;-0.77;48.51
55171;BME280;41060;47.510;8.680;2023-02-10T04:26:17;99038.38;;;-0.53;48.28
55171;BME280;41060;47.510;8.680;2023-02-10T04:28:44;98945.84;;;-1.03;48.00
55171;BME280;41060;47.510;8.680;2023-02-10T04:31:11;99045.19;;;-0.34;47.90
55171;BME280;41060;47.510;8.680;2023-02-10T04:33:38;99037.34;;;-0.22;47.60
55171;BME280;41060;47.510;8.680;2023-02-10T04:36:06;99038.16;;;-0.18;47.29
55171;BME280;41060;47.510;8.680;2023-02-10T04:38:33;99039.84;;;-0.08;47.21
55171;BME280;41060;47.510;8.680;2023-02-10T04:41:01;98967.47;;;-0.96;47.70
55171;BME280;41060;47.510;8.680;2023-02-10T04:43:28;99034.03;;;-0.54;48.21
55171;BME280;41060;47.510;8.680;2023-02-10T04:45:56;99040.06;;;-0.47;47.84
55171;BME280;41060;47.510;8.680;2023-02-10T04:48:23;99038.28;;;-0.36;47.38
55171;BME280;41060;47.510;8.680;2023-02-10T04:50:50;99031.31;;;-0.28;47.17
55171;BME280;41060;47.510;8.680;2023-02-10T04:53:20;98850.66;;;-1.33;47.28
55171;BME280;41060;47.510;8.680;2023-02-10T04:55:47;98941.34;;;-0.78;46.98
55171;BME280;41060;47.510;8.680;2023-02-10T04:58:14;99034.75;;;-0.26;47.09
55171;BME280;41060;47.510;8.680;2023-02-10T05:00:40;99031.31;;;-0.34;47.68
55171;BME280;41060;47.510;8.680;2023-02-10T05:03:09;99031.31;;;-0.31;47.32
55171;BME280;41060;47.510;8.680;2023-02-10T05:05:35;99027.81;;;-0.27;47.21
55171;BME280;41060;47.510;8.680;2023-02-10T05:08:02;99033.09;;;-0.42;47.38
55171;BME280;41060;47.510;8.680;2023-02-10T05:10:29;99034.03;;;-0.57;48.11
55171;BME280;41060;47.510;8.680;2023-02-10T05:12:56;99024.50;;;-0.55;47.94
55171;BME280;41060;47.510;8.680;2023-02-10T05:15:22;99029.72;;;-0.63;48.12
55171;BME280;41060;47.510;8.680;2023-02-10T05:17:49;99016.75;;;-0.67;47.94
55171;BME280;41060;47.510;8.680;2023-02-10T05:20:17;98971.66;;;-0.66;48.72
55171;BME280;41060;47.510;8.680;2023-02-10T05:22:44;98987.88;;;-0.28;48.83
55171;BME280;41060;47.510;8.680;2023-02-10T05:25:11;99030.16;;;0.11;48.72
55171;BME280;41060;47.510;8.680;2023-02-10T05:27:38;98997.25;;;-0.02;48.80
55171;BME280;41060;47.510;8.680;2023-02-10T05:30:06;99017.06;;;0.18;48.71
55171;BME280;41060;47.510;8.680;2023-02-10T05:32:35;99025.75;;;0.19;47.79
55171;BME280;41060;47.510;8.680;2023-02-10T05:35:02;99033.78;;;-0.11;48.24
55171;BME280;41060;47.510;8.680;2023-02-10T05:37:29;99042.66;;;-0.46;47.96
55171;BME280;41060;47.510;8.680;2023-02-10T05:39:57;98972.78;;;-1.39;49.18
55171;BME280;41060;47.510;8.680;2023-02-10T05:42:23;99051.50;;;-0.85;49.50
55171;BME280;41060;47.510;8.680;2023-02-10T05:44:52;99050.72;;;-1.04;49.37
55171;BME280;41060;47.510;8.680;2023-02-10T05:47:19;99055.88;;;-0.96;49.76
55171;BME280;41060;47.510;8.680;2023-02-10T05:49:46;99063.63;;;-0.84;49.49
55171;BME280;41060;47.510;8.680;2023-02-10T05:52:12;99055.00;;;-0.92;49.52
55171;BME280;41060;47.510;8.680;2023-02-10T05:54:41;99072.28;;;-0.73;48.96
55171;BME280;41060;47.510;8.680;2023-02-10T05:57:10;99083.63;;;-0.95;49.18
55171;BME280;41060;47.510;8.680;2023-02-10T05:59:36;99079.34;;;-1.17;49.31
55171;BME280;41060;47.510;8.680;2023-02-10T06:02:04;99080.19;;;-1.21;49.50
55171;BME280;41060;47.510;8.680;2023-02-10T06:04:33;98907.13;;;-2.30;50.13
55171;BME280;41060;47.510;8.680;2023-02-10T06:06:59;99079.25;;;-0.91;50.28
55171;BME280;41060;47.510;8.680;2023-02-10T06:09:27;99088.78;;;-0.74;49.16
55171;BME280;41060;47.510;8.680;2023-02-10T06:11:54;99061.00;;;-0.70;48.88
55171;BME280;41060;47.510;8.680;2023-02-10T06:14:23;99075.69;;;-0.51;48.41
55171;BME280;41060;47.510;8.680;2023-02-10T06:16:50;99065.25;;;-0.51;48.28
55171;BME280;41060;47.510;8.680;2023-02-10T06:19:17;99043.63;;;-0.61;47.83
55171;BME280;41060;47.510;8.680;2023-02-10T06:21:44;99060.88;;;-0.47;48.57
55171;BME280;41060;47.510;8.680;2023-02-10T06:24:11;99092.06;;;-0.31;48.52
55171;BME280;41060;47.510;8.680;2023-02-10T06:26:37;99089.41;;;-0.28;48.26
55171;BME280;41060;47.510;8.680;2023-02-10T06:29:06;99087.72;;;-0.32;48.96
55171;BME280;41060;47.510;8.680;2023-02-10T06:31:33;99094.72;;;-0.43;48.58
55171;BME280;41060;47.510;8.680;2023-02-10T06:34:00;99092.22;;;-0.73;48.80
55171;BME280;41060;47.510;8.680;2023-02-10T06:36:26;99099.22;;;-0.87;49.31
55171;BME280;41060;47.510;8.680;2023-02-10T06:38:53;99103.56;;;-1.00;49.55
55171;BME280;41060;47.510;8.680;2023-02-10T06:41:20;99086.25;;;-1.06;49.38
55171;BME280;41060;47.510;8.680;2023-02-10T06:43:47;99104.38;;;-0.86;49.37
55171;BME280;41060;47.510;8.680;2023-02-10T06:46:16;99111.34;;;-0.99;49.04
55171;BME280;41060;47.510;8.680;2023-02-10T06:48:42;99118.31;;;-1.16;49.90
55171;BME280;41060;47.510;8.680;2023-02-10T06:51:09;99120.94;;;-1.19;49.35
55171;BME280;41060;47.510;8.680;2023-02-10T06:53:36;99132.19;;;-1.27;49.82
55171;BME280;41060;47.510;8.680;2023-02-10T06:56:03;99131.31;;;-1.51;51.17
55171;BME280;41060;47.510;8.680;2023-02-10T06:58:30;99075.03;;;-1.59;50.62
55171;BME280;41060;47.510;8.680;2023-02-10T07:00:57;99117.44;;;-1.24;50.39
55171;BME280;41060;47.510;8.680;2023-02-10T07:03:27;99120.06;;;-1.56;50.27
55171;BME280;41060;47.510;8.680;2023-02-10T07:05:54;99125.25;;;-1.22;50.07
55171;BME280;41060;47.510;8.680;2023-02-10T07:08:21;99126.13;;;-1.23;50.50
55171;BME280;41060;47.510;8.680;2023-02-10T07:10:47;98927.00;;;-2.20;49.29
55171;BME280;41060;47.510;8.680;2023-02-10T07:13:14;99135.63;;;-0.89;49.01
55171;BME280;41060;47.510;8.680;2023-02-10T07:15:41;99074.13;;;-1.10;49.29
55171;BME280;41060;47.510;8.680;2023-02-10T07:18:08;99115.66;;;-0.78;49.15
55171;BME280;41060;47.510;8.680;2023-02-10T07:20:36;99127.75;;;-0.63;48.31
55171;BME280;41060;47.510;8.680;2023-02-10T07:23:03;99072.31;;;-0.83;47.95
55171;BME280;41060;47.510;8.680;2023-02-10T07:25:30;99123.34;;;-0.46;47.99
55171;BME280;41060;47.510;8.680;2023-02-10T07:27:56;99131.13;;;-0.40;48.15
55171;BME280;41060;47.510;8.680;2023-02-10T07:30:24;99118.09;;;-0.29;48.02
55171;BME280;41060;47.510;8.680;2023-02-10T07:32:50;99096.50;;;-0.57;48.17
55171;BME280;41060;47.510;8.680;2023-02-10T07:35:17;99136.44;;;-0.66;49.01
55171;BME280;41060;47.510;8.680;2023-02-10T07:37:46;99137.34;;;-0.91;49.94
55171;BME280;41060;47.510;8.680;2023-02-10T07:40:12;99098.41;;;-1.35;50.40
55171;BME280;41060;47.510;8.680;2023-02-10T07:42:42;99146.91;;;-1.01;50.83
55171;BME280;41060;47.510;8.680;2023-02-10T07:45:09;99145.19;;;-1.03;51.19
55171;BME280;41060;47.510;8.680;2023-02-10T07:47:35;99068.13;;;-1.54;51.27
55171;BME280;41060;47.510;8.680;2023-02-10T07:50:02;99151.25;;;-1.22;52.57
55171;BME280;41060;47.510;8.680;2023-02-10T07:52:30;98963.38;;;-2.23;52.21
55171;BME280;41060;47.510;8.680;2023-02-10T07:54:57;99144.25;;;-0.87;51.83
55171;BME280;41060;47.510;8.680;2023-02-10T07:57:27;99145.97;;;-0.68;51.85
55171;BME280;41060;47.510;8.680;2023-02-10T07:59:55;99150.28;;;-0.55;51.06
55171;BME280;41060;47.510;8.680;2023-02-10T08:02:21;99145.00;;;-0.32;50.88
55171;BME280;41060;47.510;8.680;2023-02-10T08:04:48;99139.78;;;-0.29;50.65
55171;BME280;41060;47.510;8.680;2023-02-10T08:07:18;99143.25;;;-0.34;50.66
55171;BME280;41060;47.510;8.680;2023-02-10T08:09:44;99157.19;;;-0.43;51.07
55171;BME280;41060;47.510;8.680;2023-02-10T08:12:12;99153.72;;;-0.48;51.48
55171;BME280;41060;47.510;8.680;2023-02-10T08:14:39;99158.03;;;-0.42;51.17
55171;BME280;41060;47.510;8.680;2023-02-10T08:17:06;99138.09;;;-0.46;51.32
55171;BME280;41060;47.510;8.680;2023-02-10T08:19:32;99146.63;;;-0.06;50.79
55171;BME280;41060;47.510;8.680;2023-02-10T08:22:02;99138.81;;;-0.11;50.47
55171;BME280;41060;47.510;8.680;2023-02-10T08:24:29;99031.34;;;-0.40;50.10
55171;BME280;41060;47.510;8.680;2023-02-10T08:26:56;99165.38;;;0.53;50.54
55171;BME280;41060;47.510;8.680;2023-02-10T08:29:27;99157.34;;;0.76;49.55
55171;BME280;41060;47.510;8.680;2023-02-10T08:31:53;99155.47;;;0.93;49.13
55171;BME280;41060;47.510;8.680;2023-02-10T08:34:23;99137.16;;;1.03;49.37
55171;BME280;41060;47.510;8.680;2023-02-10T08:36:50;99154.34;;;1.23;48.10
55171;BME280;41060;47.510;8.680;2023-02-10T08:39:17;99114.75;;;0.79;48.90
55171;BME280;41060;47.510;8.680;2023-02-10T08:41:43;99162.22;;;1.20;48.70
55171;BME280;41060;47.510;8.680;2023-02-10T08:44:12;99156.81;;;1.35;48.67
55171;BME280;41060;47.510;8.680;2023-02-10T08:46:41;99164.47;;;1.54;48.01
55171;BME280;41060;47.510;8.680;2023-02-10T08:49:08;99165.22;;;1.63;47.76
55171;BME280;41060;47.510;8.680;2023-02-10T08:51:38;99166.03;;;1.70;47.51
55171;BME280;41060;47.510;8.680;2023-02-10T08:54:05;99158.88;;;1.86;46.64
55171;BME280;41060;47.510;8.680;2023-02-10T08:56:32;99158.78;;;1.92;46.91
55171;BME280;41060;47.510;8.680;2023-02-10T08:58:59;99125.00;;;1.79;46.77
55171;BME280;41060;47.510;8.680;2023-02-10T09:01:26;99153.75;;;1.76;47.45
55171;BME280;41060;47.510;8.680;2023-02-10T09:03:55;99150.06;;;1.94;47.61
55171;BME280;41060;47.510;8.680;2023-02-10T09:06:24;99139.44;;;2.06;49.94
55171;BME280;41060;47.510;8.680;2023-02-10T09:08:52;99151.19;;;2.38;46.93
55171;BME280;41060;47.510;8.680;2023-02-10T09:11:19;99163.03;;;2.62;47.15
55171;BME280;41060;47.510;8.680;2023-02-10T09:13:48;99136.84;;;2.63;46.12
55171;BME280;41060;47.510;8.680;2023-02-10T09:16:15;99159.41;;;2.70;46.65
55171;BME280;41060;47.510;8.680;2023-02-10T09:18:41;99099.81;;;2.35;46.17
55171;BME280;41060;47.510;8.680;2023-02-10T09:21:10;99156.69;;;2.76;46.08
55171;BME280;41060;47.510;8.680;2023-02-10T09:23:37;99158.94;;;2.99;45.85
55171;BME280;41060;47.510;8.680;2023-02-10T09:26:04;99157.91;;;3.09;45.50
55171;BME280;41060;47.510;8.680;2023-02-10T09:28:31;99116.19;;;2.98;45.07
55171;BME280;41060;47.510;8.680;2023-02-10T09:30:57;99142.84;;;3.22;45.23
55171;BME280;41060;47.510;8.680;2023-02-10T09:33:24;99155.75;;;3.32;44.59
55171;BME280;41060;47.510;8.680;2023-02-10T09:35:51;99158.38;;;3.31;44.09
55171;BME280;41060;47.510;8.680;2023-02-10T09:38:19;99154.72;;;3.43;43.89
55171;BME280;41060;47.510;8.680;2023-02-10T09:40:50;99157.00;;;3.59;43.22
55171;BME280;41060;47.510;8.680;2023-02-10T09:43:27;99050.84;;;2.94;42.75
55171;BME280;41060;47.510;8.680;2023-02-10T09:46:06;99149.81;;;3.70;43.51
55171;BME280;41060;47.510;8.680;2023-02-10T09:48:45;99138.28;;;3.79;42.23
55171;BME280;41060;47.510;8.680;2023-02-10T09:51:26;99155.56;;;3.88;42.45
55171;BME280;41060;47.510;8.680;2023-02-10T09:54:05;99152.59;;;4.04;42.62
55171;BME280;41060;47.510;8.680;2023-02-10T09:56:33;99120.66;;;3.87;42.04
55171;BME280;41060;47.510;8.680;2023-02-10T09:59:01;99152.19;;;3.81;42.50
55171;BME280;41060;47.510;8.680;2023-02-10T10:01:30;99161.44;;;4.00;41.99
55171;BME280;41060;47.510;8.680;2023-02-10T10:04:04;99158.38;;;4.20;41.15
55171;BME280;41060;47.510;8.680;2023-02-10T10:06:38;99159.69;;;4.39;42.04
55171;BME280;41060;47.510;8.680;2023-02-10T10:09:18;99148.59;;;4.67;40.38
55171;BME280;41060;47.510;8.680;2023-02-10T10:11:49;99158.25;;;4.65;40.93
55171;BME280;41060;47.510;8.680;2023-02-10T10:14:20;99115.16;;;4.38;41.76
55171;BME280;41060;47.510;8.680;2023-02-10T10:17:09;99152.94;;;5.03;41.52
55171;BME280;41060;47.510;8.680;2023-02-10T10:19:46;99128.38;;;5.06;40.54
55171;BME280;41060;47.510;8.680;2023-02-10T10:22:24;99139.22;;;5.26;39.98
55171;BME280;41060;47.510;8.680;2023-02-10T10:25:17;99094.38;;;5.00;40.03
55171;BME280;41060;47.510;8.680;2023-02-10T10:27:55;99134.66;;;5.33;39.78
55171;BME280;41060;47.510;8.680;2023-02-10T10:30:34;99142.44;;;5.36;39.79
55171;BME280;41060;47.510;8.680;2023-02-10T10:33:20;99131.25;;;5.61;40.14
55171;BME280;41060;47.510;8.680;2023-02-10T10:35:48;99127.41;;;5.42;39.08
55171;BME280;41060;47.510;8.680;2023-02-10T10:38:19;99130.25;;;5.35;39.15
55171;BME280;41060;47.510;8.680;2023-02-10T10:40:48;99124.28;;;5.28;39.20
55171;BME280;41060;47.510;8.680;2023-02-10T10:43:21;99125.53;;;5.13;37.71
55171;BME280;41060;47.510;8.680;2023-02-10T10:45:52;99110.91;;;5.36;38.84
55171;BME280;41060;47.510;8.680;2023-02-10T10:48:24;99115.94;;;5.76;38.81
55171;BME280;41060;47.510;8.680;2023-02-10T10:50:54;99046.94;;;5.67;38.08
55171;BME280;41060;47.510;8.680;2023-02-10T10:53:33;99093.00;;;6.39;37.75
55171;BME280;41060;47.510;8.680;2023-02-10T10:56:05;99012.31;;;6.12;37.08
55171;BME280;41060;47.510;8.680;2023-02-10T10:58:37;99105.25;;;6.95;36.65
55171;BME280;41060;47.510;8.680;2023-02-10T11:01:04;99097.00;;;7.05;36.43
55171;BME280;41060;47.510;8.680;2023-02-10T11:03:32;99092.09;;;7.19;36.83
55171;BME280;41060;47.510;8.680;2023-02-10T11:06:03;99075.84;;;7.32;36.54
55171;BME280;41060;47.510;8.680;2023-02-10T11:08:35;99058.00;;;7.40;36.01
55171;BME280;41060;47.510;8.680;2023-02-10T11:11:05;99066.66;;;7.68;35.77
55171;BME280;41060;47.510;8.680;2023-02-10T11:13:38;99054.31;;;7.44;35.20
55171;BME280;41060;47.510;8.680;2023-02-10T11:16:09;99062.50;;;7.61;35.68
55171;BME280;41060;47.510;8.680;2023-02-10T11:18:37;99049.91;;;7.69;36.33
55171;BME280;41060;47.510;8.680;2023-02-10T11:21:06;99063.66;;;8.00;35.60
55171;BME280;41060;47.510;8.680;2023-02-10T11:23:45;99060.50;;;8.14;35.72
55171;BME280;41060;47.510;8.680;2023-02-10T11:26:20;99062.38;;;8.32;34.88
55171;BME280;41060;47.510;8.680;2023-02-10T11:28:49;99060.88;;;8.27;35.49
55171;BME280;41060;47.510;8.680;2023-02-10T11:31:25;98906.31;;;7.54;34.95
55171;BME280;41060;47.510;8.680;2023-02-10T11:33:56;99060.28;;;8.62;34.66
55171;BME280;41060;47.510;8.680;2023-02-10T11:36:34;99018.81;;;8.44;34.23
55171;BME280;41060;47.510;8.680;2023-02-10T11:39:04;99062.06;;;8.18;34.75
55171;BME280;41060;47.510;8.680;2023-02-10T11:41:33;99018.63;;;8.05;33.78
55171;BME280;41060;47.510;8.680;2023-02-10T11:44:01;98972.91;;;7.83;34.23
55171;BME280;41060;47.510;8.680;2023-02-10T11:46:29;99052.09;;;8.48;34.07
55171;BME280;41060;47.510;8.680;2023-02-10T11:48:58;99044.72;;;8.56;33.93
55171;BME280;41060;47.510;8.680;2023-02-10T11:51:25;99045.03;;;8.91;33.60
55171;BME280;41060;47.510;8.680;2023-02-10T11:53:53;99040.25;;;8.78;32.20
55171;BME280;41060;47.510;8.680;2023-02-10T11:56:24;98989.69;;;8.67;32.12
55171;BME280;41060;47.510;8.680;2023-02-10T11:59:17;99027.94;;;9.20;32.13
55171;BME280;41060;47.510;8.680;2023-02-10T12:01:51;98867.06;;;7.70;31.87
55171;BME280;41060;47.510;8.680;2023-02-10T12:04:36;99041.22;;;8.56;32.26
55171;BME280;41060;47.510;8.680;2023-02-10T12:07:16;99036.44;;;8.44;33.35
55171;BME280;41060;47.510;8.680;2023-02-10T12:09:49;99016.91;;;8.26;32.64
55171;BME280;41060;47.510;8.680;2023-02-10T12:12:26;99035.03;;;8.35;33.30
55171;BME280;41060;47.510;8.680;2023-02-10T12:15:06;99023.41;;;7.95;33.76
55171;BME280;41060;47.510;8.680;2023-02-10T12:17:41;99021.47;;;8.00;35.01
55171;BME280;41060;47.510;8.680;2023-02-10T12:20:23;98846.59;;;7.32;34.25
55171;BME280;41060;47.510;8.680;2023-02-10T12:23:19;99018.00;;;8.42;34.45
55171;BME280;41060;47.510;8.680;2023-02-10T12:25:58;98934.44;;;8.21;34.05
55171;BME280;41060;47.510;8.680;2023-02-10T12:28:35;99005.19;;;8.33;34.27
55171;BME280;41060;47.510;8.680;2023-02-10T12:31:13;98808.38;;;6.98;34.62
55171;BME280;41060;47.510;8.680;2023-02-10T12:34:00;99007.34;;;8.23;34.52
55171;BME280;41060;47.510;8.680;2023-02-10T12:36:36;99011.63;;;8.26;34.04
55171;BME280;41060;47.510;8.680;2023-02-10T12:39:12;99003.00;;;8.00;34.62
55171;BME280;41060;47.510;8.680;2023-02-10T12:41:49;98994.19;;;8.44;34.29
55171;BME280;41060;47.510;8.680;2023-02-10T12:44:31;98874.34;;;7.85;33.91
55171;BME280;41060;47.510;8.680;2023-02-10T12:47:11;99002.69;;;8.72;34.52
55171;BME280;41060;47.510;8.680;2023-02-10T12:49:52;98990.59;;;8.87;34.01
55171;BME280;41060;47.510;8.680;2023-02-10T12:52:28;99001.97;;;8.68;32.98
55171;BME280;41060;47.510;8.680;2023-02-10T12:55:00;99003.91;;;8.63;33.94
55171;BME280;41060;47.510;8.680;2023-02-10T12:57:33;98991.47;;;8.87;33.01
55171;BME280;41060;47.510;8.680;2023-02-10T13:00:04;98991.38;;;9.29;32.30
55171;BME280;41060;47.510;8.680;2023-02-10T13:02:39;98991.78;;;9.20;32.58
55171;BME280;41060;47.510;8.680;2023-02-10T13:05:07;98988.97;;;9.25;31.58
55171;BME280;41060;47.510;8.680;2023-02-10T13:07:41;98971.63;;;9.17;31.33
55171;BME280;41060;47.510;8.680;2023-02-10T13:10:20;98830.03;;;8.54;31.03
55171;BME280;41060;47.510;8.680;2023-02-10T13:12:50;98975.13;;;9.38;30.69
55171;BME280;41060;47.510;8.680;2023-02-10T13:15:23;98915.91;;;9.42;31.18
55171;BME280;41060;47.510;8.680;2023-02-10T13:17:52;98985.41;;;10.19;30.52
55171;BME280;41060;47.510;8.680;2023-02-10T13:20:28;98980.84;;;10.40;30.66
55171;BME280;41060;47.510;8.680;2023-02-10T13:23:07;98967.41;;;10.79;29.72
55171;BME280;41060;47.510;8.680;2023-02-10T13:25:56;98976.75;;;11.21;29.14